createdAt,value
2018-01-21T00:00:57.970Z,99893.53
2018-01-21T00:03:23.925Z,99909.78
2018-01-21T00:05:50.349Z,99913.46
2018-01-21T00:08:16.289Z,99920.73
2018-01-21T00:10:42.226Z,99920.89
2018-01-21T00:13:08.170Z,99931.84
2018-01-21T00:15:34.117Z,99938.87
2018-01-21T00:18:00.132Z,99954.19
2018-01-21T00:20:26.079Z,99954.51
2018-01-21T00:22:52.034Z,99952.52
2018-01-21T00:25:17.990Z,99958.11
2018-01-21T00:27:43.931Z,99952.86
2018-01-21T00:30:09.968Z,99954.14
2018-01-21T00:32:35.934Z,99967.04
2018-01-21T00:35:01.916Z,99970.07
2018-01-21T00:37:27.864Z,99976.81
2018-01-21T00:39:53.823Z,99989.94
2018-01-21T00:42:19.777Z,99994.56
2018-01-21T00:44:45.716Z,100001.56
2018-01-21T00:47:11.676Z,100003.22
2018-01-21T00:49:37.645Z,100007.82
2018-01-21T00:52:03.581Z,100013.58
2018-01-21T00:54:29.524Z,100019.25
2018-01-21T00:56:55.475Z,100026.30
2018-01-21T00:59:21.418Z,100031.81
2018-01-21T01:01:47.397Z,100035.17
2018-01-21T01:04:13.333Z,100041.19
2018-01-21T01:06:39.302Z,100048.69
2018-01-21T01:09:05.246Z,100054.78
2018-01-21T01:11:31.218Z,100057.35
2018-01-21T01:13:57.165Z,100062.22
2018-01-21T01:16:23.126Z,100068.66
2018-01-21T01:18:49.073Z,100073.34
2018-01-21T01:21:15.013Z,100080.94
2018-01-21T01:23:40.980Z,100086.56
2018-01-21T01:26:07.100Z,100097.02
2018-01-21T01:28:33.057Z,100101.36
2018-01-21T01:30:58.994Z,100112.11
2018-01-21T01:33:24.956Z,100120.19
2018-01-21T01:35:50.912Z,100121.19
2018-01-21T01:38:16.861Z,100122.33
2018-01-21T01:40:42.849Z,100128.92
2018-01-21T01:43:08.785Z,100138.70
2018-01-21T01:45:34.736Z,100150.50
2018-01-21T01:48:00.716Z,100148.66
2018-01-21T01:50:26.674Z,100150.45
2018-01-21T01:52:52.645Z,100159.20
2018-01-21T01:55:18.624Z,100163.88
2018-01-21T01:57:44.588Z,100164.50
2018-01-21T02:00:10.532Z,100178.33
2018-01-21T02:02:36.488Z,100190.21
2018-01-21T02:05:02.437Z,100193.78
2018-01-21T02:07:28.424Z,100203.91
2018-01-21T02:09:54.374Z,100204.38
2018-01-21T02:12:20.325Z,100211.48
2018-01-21T02:14:46.478Z,100215.83
2018-01-21T02:17:12.421Z,100218.70
2018-01-21T02:19:38.360Z,100220.75
2018-01-21T02:22:04.308Z,100225.92
2018-01-21T02:24:30.262Z,100223.16
2018-01-21T02:26:56.205Z,100222.56
2018-01-21T02:29:22.165Z,100236.56
2018-01-21T02:31:48.112Z,100233.51
2018-01-21T02:34:14.041Z,100240.06
2018-01-21T02:36:40.076Z,100245.23
2018-01-21T02:39:06.014Z,100246.45
2018-01-21T02:41:31.968Z,100245.02
2018-01-21T02:43:57.917Z,100253.27
2018-01-21T02:46:23.877Z,100257.42
2018-01-21T02:48:49.829Z,100264.86
2018-01-21T02:51:15.813Z,100264.72
2018-01-21T02:53:41.751Z,100275.32
2018-01-21T02:56:07.696Z,100273.18
2018-01-21T02:58:33.840Z,100287.08
2018-01-21T03:00:59.869Z,100291.81
2018-01-21T03:03:25.844Z,100298.17
2018-01-21T03:05:51.798Z,100304.70
2018-01-21T03:08:17.785Z,100308.34
2018-01-21T03:10:43.721Z,100313.25
2018-01-21T03:13:09.672Z,100314.79
2018-01-21T03:15:35.632Z,100322.33
2018-01-21T03:18:01.578Z,100335.97
2018-01-21T03:20:27.520Z,100343.73
2018-01-21T03:22:53.576Z,100342.75
2018-01-21T03:25:19.557Z,100346.55
2018-01-21T03:27:45.509Z,100359.23
2018-01-21T03:30:11.456Z,100357.64
2018-01-21T03:32:37.409Z,100366.81
2018-01-21T03:35:03.361Z,100366.48
2018-01-21T03:37:29.359Z,100371.22
2018-01-21T03:39:55.297Z,100371.60
2018-01-21T03:42:21.242Z,100376.72
2018-01-21T03:44:47.206Z,100383.94
2018-01-21T03:47:13.145Z,100390.01
2018-01-21T03:49:39.085Z,100393.05
2018-01-21T03:52:05.079Z,100389.77
2018-01-21T03:54:31.029Z,100395.48
2018-01-21T03:56:56.972Z,100408.03
2018-01-21T03:59:22.924Z,100415.34
2018-01-21T04:01:48.864Z,100420.33
2018-01-21T04:04:14.860Z,100423.83
2018-01-21T04:06:40.800Z,100430.88
2018-01-21T04:09:06.744Z,100443.42
2018-01-21T04:11:32.692Z,100445.61
2018-01-21T04:13:58.632Z,100445.78
2018-01-21T04:16:24.577Z,100442.16
2018-01-21T04:18:50.516Z,100452.67
2018-01-21T04:21:16.465Z,100450.45
2018-01-21T04:23:42.508Z,100451.73
2018-01-21T04:26:08.464Z,100458.55
2018-01-21T04:28:34.416Z,100459.28
2018-01-21T04:31:00.372Z,100464.22
2018-01-21T04:33:26.312Z,100466.89
2018-01-21T04:35:52.257Z,100482.17
2018-01-21T04:38:18.228Z,100486.48
2018-01-21T04:40:44.170Z,100493.88
2018-01-21T04:43:10.116Z,100502.60
2018-01-21T04:45:36.225Z,100502.73
2018-01-21T04:48:02.163Z,100504.24
2018-01-21T04:50:28.124Z,100505.97
2018-01-21T04:52:54.106Z,100512.30
2018-01-21T04:55:20.062Z,100517.41
2018-01-21T04:57:45.993Z,100515.44
2018-01-21T05:00:11.976Z,100519.49
2018-01-21T05:02:37.920Z,100518.47
2018-01-21T05:05:03.863Z,100534.00
2018-01-21T05:07:29.797Z,100531.28
2018-01-21T05:09:55.761Z,100533.88
2018-01-21T05:12:21.721Z,100540.38
2018-01-21T05:14:47.697Z,100542.19
2018-01-21T05:17:13.628Z,100542.53
2018-01-21T05:19:39.573Z,100544.03
2018-01-21T05:22:05.696Z,100546.41
2018-01-21T05:24:31.629Z,100545.00
2018-01-21T05:26:57.606Z,100550.39
2018-01-21T05:29:23.657Z,100558.69
2018-01-21T05:31:49.957Z,100559.09
2018-01-21T05:34:15.924Z,100558.75
2018-01-21T05:36:41.885Z,100568.25
2018-01-21T05:39:07.850Z,100575.05
2018-01-21T05:41:33.808Z,100576.09
2018-01-21T05:43:59.750Z,100582.05
2018-01-21T05:46:25.828Z,100583.86
2018-01-21T05:48:51.789Z,100596.26
2018-01-21T05:51:17.743Z,100595.10
2018-01-21T05:53:43.677Z,100594.97
2018-01-21T05:56:09.636Z,100603.50
2018-01-21T05:58:35.578Z,100604.25
2018-01-21T06:01:01.521Z,100618.39
2018-01-21T06:03:27.602Z,100610.98
2018-01-21T06:05:53.564Z,100620.83
2018-01-21T06:08:19.601Z,100628.38
2018-01-21T06:10:45.736Z,100635.94
2018-01-21T06:13:11.677Z,100637.18
2018-01-21T06:15:37.637Z,100649.84
2018-01-21T06:18:03.770Z,100658.43
2018-01-21T06:20:29.733Z,100663.45
2018-01-21T06:22:55.698Z,100669.52
2018-01-21T06:25:21.665Z,100675.42
2018-01-21T06:27:47.601Z,100678.02
2018-01-21T06:30:13.665Z,100685.95
2018-01-21T06:32:39.611Z,100678.34
2018-01-21T06:35:05.553Z,100683.44
2018-01-21T06:37:31.510Z,100691.55
2018-01-21T06:39:57.448Z,100702.06
2018-01-21T06:42:23.445Z,100703.83
2018-01-21T06:44:49.397Z,100708.65
2018-01-21T06:47:15.366Z,100709.33
2018-01-21T06:49:41.485Z,100718.64
2018-01-21T06:52:07.448Z,100716.88
2018-01-21T06:54:33.393Z,100725.85
2018-01-21T06:56:59.381Z,100727.97
2018-01-21T06:59:25.327Z,100734.69
2018-01-21T07:01:51.318Z,100736.59
2018-01-21T07:04:17.276Z,100742.91
2018-01-21T07:06:43.269Z,100744.58
2018-01-21T07:09:09.245Z,100745.73
2018-01-21T07:11:35.186Z,100747.45
2018-01-21T07:14:01.142Z,100758.16
2018-01-21T07:16:27.100Z,100762.92
2018-01-21T07:18:53.097Z,100765.61
2018-01-21T07:21:19.041Z,100765.25
2018-01-21T07:23:44.981Z,100768.87
2018-01-21T07:26:10.938Z,100771.81
2018-01-21T07:28:36.894Z,100774.52
2018-01-21T07:31:02.842Z,100784.12
2018-01-21T07:33:28.785Z,100789.08
2018-01-21T07:35:54.725Z,100794.08
2018-01-21T07:38:20.670Z,100799.98
2018-01-21T07:40:46.625Z,100802.83
2018-01-21T07:43:12.569Z,100809.57
2018-01-21T07:45:38.522Z,100817.06
2018-01-21T07:48:04.481Z,100810.28
2018-01-21T07:50:30.426Z,100823.14
2018-01-21T07:52:56.360Z,100824.07
2018-01-21T07:55:22.305Z,100837.29
2018-01-21T07:57:48.251Z,100840.30
2018-01-21T08:00:14.197Z,100843.00
2018-01-21T08:02:40.142Z,100850.58
2018-01-21T08:05:06.093Z,100857.97
2018-01-21T08:07:32.033Z,100856.59
2018-01-21T08:09:57.991Z,100862.41
2018-01-21T08:12:23.966Z,100873.27
2018-01-21T08:14:50.010Z,100874.30
2018-01-21T08:17:15.944Z,100880.06
2018-01-21T08:19:41.897Z,100887.95
2018-01-21T08:22:07.840Z,100890.92
2018-01-21T08:24:33.793Z,100894.28
2018-01-21T08:26:59.745Z,100900.16
2018-01-21T08:29:25.706Z,100904.92
2018-01-21T08:31:51.645Z,100908.05
2018-01-21T08:34:17.778Z,100909.35
2018-01-21T08:36:43.726Z,100907.41
2018-01-21T08:39:09.707Z,100910.35
2018-01-21T08:41:35.641Z,100911.37
2018-01-21T08:44:01.681Z,100914.09
2018-01-21T08:46:27.703Z,100914.52
2018-01-21T08:48:53.661Z,100914.51
2018-01-21T08:51:19.608Z,100919.98
2018-01-21T08:53:45.572Z,100918.34
2018-01-21T08:56:11.534Z,100932.63
2018-01-21T08:58:37.495Z,100926.20
2018-01-21T09:01:03.457Z,100933.22
2018-01-21T09:03:29.408Z,100929.31
2018-01-21T09:05:55.413Z,100936.06
2018-01-21T09:08:21.346Z,100939.00
2018-01-21T09:10:47.293Z,100940.97
2018-01-21T09:13:13.274Z,100941.50
2018-01-21T09:15:39.221Z,100946.72
2018-01-21T09:18:05.275Z,100940.45
2018-01-21T09:20:31.284Z,100945.53
2018-01-21T09:22:57.238Z,100949.00
2018-01-21T09:25:23.178Z,100957.74
2018-01-21T09:27:49.145Z,100960.80
2018-01-21T09:30:15.089Z,100966.31
2018-01-21T09:32:41.052Z,100972.06
2018-01-21T09:35:07.001Z,100970.40
2018-01-21T09:37:32.960Z,100974.28
2018-01-21T09:39:58.910Z,100977.66
2018-01-21T09:42:24.855Z,100980.62
2018-01-21T09:44:50.838Z,100979.02
2018-01-21T09:47:16.768Z,100980.70
2018-01-21T09:49:42.704Z,100981.33
2018-01-21T09:52:08.668Z,100987.23
2018-01-21T09:54:34.622Z,100995.78
2018-01-21T09:57:00.581Z,101004.48
2018-01-21T09:59:26.534Z,101010.31
2018-01-21T10:01:52.601Z,101014.48
2018-01-21T10:04:18.549Z,101018.38
2018-01-21T10:06:44.510Z,101021.58
2018-01-21T10:09:10.477Z,101024.91
2018-01-21T10:11:36.417Z,101034.48
2018-01-21T10:14:02.366Z,101045.45
2018-01-21T10:16:28.551Z,101041.78
2018-01-21T10:18:54.513Z,101044.38
2018-01-21T10:21:20.456Z,101039.34
2018-01-21T10:23:46.396Z,101045.70
2018-01-21T10:26:12.337Z,101050.52
2018-01-21T10:28:38.285Z,101053.25
2018-01-21T10:31:04.420Z,101057.78
2018-01-21T10:33:30.357Z,101062.69
2018-01-21T10:35:56.315Z,101068.25
2018-01-21T10:38:22.240Z,101079.50
2018-01-21T10:40:48.194Z,101083.99
2018-01-21T10:43:14.137Z,101069.29
2018-01-21T10:45:40.093Z,101079.14
2018-01-21T10:48:06.087Z,101084.50
2018-01-21T10:50:32.070Z,101083.19
2018-01-21T10:52:58.017Z,101086.03
2018-01-21T10:55:23.969Z,101085.13
2018-01-21T10:57:49.997Z,101080.00
2018-01-21T11:00:16.021Z,101085.53
2018-01-21T11:02:42.044Z,101085.12
2018-01-21T11:05:07.999Z,101082.64
2018-01-21T11:07:34.015Z,101084.30
2018-01-21T11:09:59.964Z,101077.91
2018-01-21T11:12:25.938Z,101092.75
2018-01-21T11:14:51.893Z,101095.55
2018-01-21T11:17:17.833Z,101096.38
2018-01-21T11:19:43.810Z,101096.88
2018-01-21T11:22:09.776Z,101099.78
2018-01-21T11:24:35.737Z,101103.27
2018-01-21T11:27:01.716Z,101095.77
2018-01-21T11:29:27.768Z,101089.78
2018-01-21T11:31:53.734Z,101088.25
2018-01-21T11:34:19.682Z,101090.77
2018-01-21T11:36:45.641Z,101086.64
2018-01-21T11:39:11.577Z,101096.66
2018-01-21T11:41:37.591Z,101092.74
2018-01-21T11:44:03.613Z,101101.22
2018-01-21T11:46:29.650Z,101087.92
2018-01-21T11:48:55.737Z,101082.36
2018-01-21T11:51:21.702Z,101077.81
2018-01-21T11:53:47.767Z,101085.95
2018-01-21T11:56:13.777Z,101076.46
2018-01-21T11:58:39.799Z,101078.41
2018-01-21T12:01:05.751Z,101078.94
2018-01-21T12:03:31.713Z,101081.36
2018-01-21T12:05:57.657Z,101082.64
2018-01-21T12:08:23.609Z,101077.08
2018-01-21T12:10:49.581Z,101086.59
2018-01-21T12:13:15.553Z,101087.97
2018-01-21T12:15:41.585Z,101082.19
2018-01-21T12:18:07.533Z,101084.58
2018-01-21T12:20:33.489Z,101073.45
2018-01-21T12:22:59.465Z,101067.84
2018-01-21T12:25:25.454Z,101083.30
2018-01-21T12:27:51.436Z,101086.65
2018-01-21T12:30:17.473Z,101081.45
2018-01-21T12:32:43.429Z,101085.33
2018-01-21T12:35:09.380Z,101089.29
2018-01-21T12:37:35.342Z,101090.27
2018-01-21T12:40:01.273Z,101096.16
2018-01-21T12:42:27.224Z,101097.91
2018-01-21T12:44:53.165Z,101103.55
2018-01-21T12:47:19.132Z,101105.52
2018-01-21T12:49:45.078Z,101107.75
2018-01-21T12:52:11.022Z,101108.94
2018-01-21T12:54:36.980Z,101106.78
2018-01-21T12:57:02.925Z,101102.81
2018-01-21T12:59:28.875Z,101117.76
2018-01-21T13:01:54.917Z,101118.27
2018-01-21T13:04:20.865Z,101115.18
2018-01-21T13:06:46.814Z,101109.56
2018-01-21T13:09:12.788Z,101115.13
2018-01-21T13:11:38.735Z,101119.58
2018-01-21T13:14:04.677Z,101122.83
2018-01-21T13:16:30.650Z,101116.65
2018-01-21T13:18:56.601Z,101119.28
2018-01-21T13:21:22.542Z,101122.06
2018-01-21T13:23:48.489Z,101129.77
2018-01-21T13:26:14.436Z,101133.11
2018-01-21T13:28:40.421Z,101132.88
2018-01-21T13:31:06.382Z,101136.43
2018-01-21T13:33:32.361Z,101132.97
2018-01-21T13:35:58.326Z,101124.35
2018-01-21T13:38:24.277Z,101121.14
2018-01-21T13:40:50.240Z,101131.24
2018-01-21T13:43:16.269Z,101132.47
2018-01-21T13:45:42.328Z,101133.16
2018-01-21T13:48:08.272Z,101126.88
2018-01-21T13:50:34.218Z,101128.37
2018-01-21T13:53:00.186Z,101133.06
2018-01-21T13:55:26.130Z,101129.31
2018-01-21T13:57:52.253Z,101130.52
2018-01-21T14:00:18.230Z,101128.69
2018-01-21T14:02:44.222Z,101132.98
2018-01-21T14:05:10.172Z,101141.11
2018-01-21T14:07:36.139Z,101136.84
2018-01-21T14:10:02.079Z,101135.23
2018-01-21T14:12:28.054Z,101140.61
2018-01-21T14:14:54.010Z,101134.95
2018-01-21T14:17:20.069Z,101141.11
2018-01-21T14:19:46.018Z,101143.13
2018-01-21T14:22:12.117Z,101148.03
2018-01-21T14:24:38.089Z,101151.45
2018-01-21T14:27:04.050Z,101149.05
2018-01-21T14:29:30.095Z,101151.55
2018-01-21T14:31:56.969Z,101148.27
2018-01-21T14:34:22.991Z,101136.27
2018-01-21T14:36:48.957Z,101136.02
2018-01-21T14:39:14.932Z,101132.26
2018-01-21T14:41:40.897Z,101143.77
2018-01-21T14:44:06.865Z,101143.58
2018-01-21T14:46:32.795Z,101139.16
2018-01-21T14:48:58.729Z,101146.20
2018-01-21T14:51:24.742Z,101145.53
2018-01-21T14:53:50.697Z,101149.01
2018-01-21T14:56:16.666Z,101150.03
2018-01-21T14:58:42.657Z,101144.88
2018-01-21T15:01:08.593Z,101148.09
2018-01-21T15:03:34.537Z,101146.14
2018-01-21T15:06:00.509Z,101144.83
2018-01-21T15:08:26.454Z,101148.41
2018-01-21T15:10:52.415Z,101151.47
2018-01-21T15:13:18.372Z,101151.45
2018-01-21T15:15:44.305Z,101147.90
2018-01-21T15:18:10.309Z,101151.86
2018-01-21T15:20:36.260Z,101153.41
2018-01-21T15:23:02.210Z,101155.42
2018-01-21T15:25:28.169Z,101155.50
2018-01-21T15:27:54.122Z,101153.49
2018-01-21T15:30:20.072Z,101139.39
2018-01-21T15:32:46.026Z,101136.84
2018-01-21T15:35:11.969Z,101128.84
2018-01-21T15:37:38.005Z,101133.62
2018-01-21T15:40:03.971Z,101136.35
2018-01-21T15:42:29.932Z,101137.03
2018-01-21T15:44:55.883Z,101132.98
2018-01-21T15:47:21.838Z,101127.73
2018-01-21T15:49:47.797Z,101128.66
2018-01-21T15:52:13.762Z,101121.52
2018-01-21T15:54:39.706Z,101122.55
2018-01-21T15:57:05.705Z,101118.88
2018-01-21T15:59:31.640Z,101121.02
2018-01-21T16:01:57.673Z,101121.23
2018-01-21T16:04:23.839Z,101122.69
2018-01-21T16:06:49.781Z,101117.98
2018-01-21T16:09:15.725Z,101121.02
2018-01-21T16:11:41.675Z,101122.06
2018-01-21T16:14:07.668Z,101130.86
2018-01-21T16:16:33.579Z,101125.78
2018-01-21T16:18:59.577Z,101121.83
2018-01-21T16:21:25.603Z,101112.96
2018-01-21T16:23:51.556Z,101107.73
2018-01-21T16:26:17.509Z,101115.52
2018-01-21T16:28:43.454Z,101114.50
2018-01-21T16:31:09.417Z,101112.25
2018-01-21T16:33:35.377Z,101116.39
2018-01-21T16:36:01.321Z,101109.64
2018-01-21T16:38:27.290Z,101098.59
2018-01-21T16:40:53.261Z,101087.75
2018-01-21T16:43:19.232Z,101089.37
2018-01-21T16:45:45.223Z,101090.40
2018-01-21T16:48:11.361Z,101081.16
2018-01-21T16:50:37.324Z,101082.84
2018-01-21T16:53:03.270Z,101080.41
2018-01-21T16:55:29.217Z,101080.53
2018-01-21T16:57:55.157Z,101078.72
2018-01-21T17:00:21.114Z,101083.30
2018-01-21T17:02:47.082Z,101068.23
2018-01-21T17:05:13.061Z,101070.09
2018-01-21T17:07:39.017Z,101079.33
2018-01-21T17:10:05.002Z,101078.80
2018-01-21T17:12:30.978Z,101073.84
2018-01-21T17:14:57.021Z,101078.91
2018-01-21T17:17:23.065Z,101089.02
2018-01-21T17:19:49.084Z,101079.84
2018-01-21T17:22:15.078Z,101076.45
2018-01-21T17:24:41.057Z,101071.10
2018-01-21T17:27:07.008Z,101088.27
2018-01-21T17:29:32.964Z,101082.57
2018-01-21T17:31:58.944Z,101087.98
2018-01-21T17:34:24.906Z,101090.98
2018-01-21T17:36:50.864Z,101091.52
2018-01-21T17:39:16.922Z,101083.06
2018-01-21T17:41:42.861Z,101086.73
2018-01-21T17:44:08.834Z,101079.93
2018-01-21T17:46:34.789Z,101063.94
2018-01-21T17:49:00.749Z,101056.66
2018-01-21T17:51:26.709Z,101051.30
2018-01-21T17:53:52.669Z,101053.81
2018-01-21T17:56:18.625Z,101050.19
2018-01-21T17:58:44.641Z,101048.33
2018-01-21T18:01:10.583Z,101056.58
2018-01-21T18:03:36.557Z,101040.81
2018-01-21T18:06:02.602Z,101042.77
2018-01-21T18:08:28.561Z,101046.16
2018-01-21T18:10:54.527Z,101047.97
2018-01-21T18:13:20.494Z,101059.97
2018-01-21T18:15:46.462Z,101059.72
2018-01-21T18:18:12.439Z,101066.86
2018-01-21T18:20:38.393Z,101067.22
2018-01-21T18:23:04.325Z,101064.84
2018-01-21T18:25:30.338Z,101055.39
2018-01-21T18:27:56.281Z,101048.46
2018-01-21T18:30:22.265Z,101038.81
2018-01-21T18:32:48.537Z,101031.59
2018-01-21T18:35:14.516Z,101039.34
2018-01-21T18:37:40.469Z,101034.92
2018-01-21T18:40:06.419Z,101032.29
2018-01-21T18:42:32.356Z,101031.72
2018-01-21T18:44:58.338Z,101037.82
2018-01-21T18:47:24.273Z,101039.42
2018-01-21T18:49:50.324Z,101034.69
2018-01-21T18:52:16.297Z,101019.34
2018-01-21T18:54:42.246Z,101015.39
2018-01-21T18:57:08.196Z,101010.27
2018-01-21T18:59:34.182Z,101008.09
2018-01-21T19:02:00.153Z,100996.50
2018-01-21T19:04:26.101Z,100990.48
2018-01-21T19:06:52.081Z,100982.27
2018-01-21T19:09:18.051Z,100984.62
2018-01-21T19:11:44.060Z,100986.93
2018-01-21T19:14:10.009Z,100987.19
2018-01-21T19:16:35.957Z,100984.83
2018-01-21T19:19:02.101Z,100992.83
2018-01-21T19:21:28.054Z,100991.15
2018-01-21T19:23:53.997Z,100992.13
2018-01-21T19:26:20.111Z,100987.06
2018-01-21T19:28:46.069Z,100967.89
2018-01-21T19:31:12.099Z,100970.41
2018-01-21T19:33:38.031Z,100963.11
2018-01-21T19:36:03.992Z,100959.16
2018-01-21T19:38:29.944Z,100953.25
2018-01-21T19:40:55.899Z,100957.83
2018-01-21T19:43:21.840Z,100950.48
2018-01-21T19:45:47.813Z,100940.33
2018-01-21T19:48:13.785Z,100927.95
2018-01-21T19:50:39.778Z,100926.06
2018-01-21T19:53:05.716Z,100926.92
2018-01-21T19:55:31.660Z,100929.36
2018-01-21T19:57:57.603Z,100916.42
2018-01-21T20:00:23.585Z,100905.55
2018-01-21T20:02:49.588Z,100892.34
2018-01-21T20:05:15.562Z,100890.33
2018-01-21T20:07:41.601Z,100885.88
2018-01-21T20:10:07.543Z,100882.95
2018-01-21T20:12:33.509Z,100870.84
2018-01-21T20:14:59.465Z,100873.81
2018-01-21T20:17:25.453Z,100863.63
2018-01-21T20:19:51.405Z,100865.36
2018-01-21T20:22:17.365Z,100870.26
2018-01-21T20:24:43.393Z,100857.56
2018-01-21T20:27:09.360Z,100853.06
2018-01-21T20:29:35.334Z,100840.48
2018-01-21T20:32:01.281Z,100840.52
2018-01-21T20:34:27.265Z,100828.16
2018-01-21T20:36:53.233Z,100823.13
2018-01-21T20:39:19.198Z,100833.70
2018-01-21T20:41:45.137Z,100835.98
2018-01-21T20:44:11.335Z,100830.30
2018-01-21T20:46:37.297Z,100831.15
2018-01-21T20:49:03.282Z,100826.25
2018-01-21T20:51:29.257Z,100823.06
2018-01-21T20:53:55.226Z,100823.21
2018-01-21T20:56:21.193Z,100816.07
2018-01-21T20:58:47.149Z,100822.72
2018-01-21T21:01:13.119Z,100816.95
2018-01-21T21:03:39.055Z,100823.00
2018-01-21T21:06:05.034Z,100826.11
2018-01-21T21:08:30.994Z,100823.27
2018-01-21T21:10:57.013Z,100816.80
2018-01-21T21:13:23.016Z,100811.27
2018-01-21T21:15:48.953Z,100811.30
2018-01-21T21:18:14.926Z,100802.91
2018-01-21T21:20:40.881Z,100799.63
2018-01-21T21:23:06.874Z,100796.33
2018-01-21T21:25:32.814Z,100800.37
2018-01-21T21:27:58.750Z,100805.55
2018-01-21T21:30:24.708Z,100797.62
2018-01-21T21:32:50.676Z,100794.20
2018-01-21T21:35:16.689Z,100790.80
2018-01-21T21:37:42.717Z,100786.11
2018-01-21T21:40:08.681Z,100770.39
2018-01-21T21:42:34.656Z,100768.77
2018-01-21T21:45:00.601Z,100759.36
2018-01-21T21:47:26.820Z,100758.48
2018-01-21T21:49:52.735Z,100748.36
2018-01-21T21:52:18.691Z,100740.72
2018-01-21T21:54:44.653Z,100737.28
2018-01-21T21:57:10.597Z,100733.38
2018-01-21T21:59:36.571Z,100726.69
2018-01-21T22:02:02.541Z,100718.66
2018-01-21T22:04:28.588Z,100708.65
2018-01-21T22:06:54.533Z,100705.42
2018-01-21T22:09:20.480Z,100703.64
2018-01-21T22:11:46.428Z,100702.36
2018-01-21T22:14:12.436Z,100702.70
2018-01-21T22:16:38.382Z,100700.09
2018-01-21T22:19:04.357Z,100708.77
2018-01-21T22:21:30.310Z,100696.39
2018-01-21T22:23:56.350Z,100697.84
2018-01-21T22:26:22.309Z,100690.16
2018-01-21T22:28:48.249Z,100685.45
2018-01-21T22:31:14.207Z,100687.00
2018-01-21T22:33:40.177Z,100683.27
2018-01-21T22:36:06.132Z,100682.98
2018-01-21T22:38:32.085Z,100683.98
2018-01-21T22:40:58.105Z,100678.50
2018-01-21T22:43:24.045Z,100676.67
2018-01-21T22:45:50.033Z,100663.39
2018-01-21T22:48:15.971Z,100644.34
2018-01-21T22:50:41.928Z,100638.54
2018-01-21T22:53:07.916Z,100635.80
2018-01-21T22:55:33.861Z,100614.20
2018-01-21T22:57:59.798Z,100611.56
2018-01-21T23:00:25.761Z,100601.94
2018-01-21T23:02:51.713Z,100601.97
2018-01-21T23:05:17.662Z,100602.69
2018-01-21T23:07:43.619Z,100599.15
2018-01-21T23:10:09.581Z,100589.63
2018-01-21T23:12:35.544Z,100581.66
2018-01-21T23:15:01.506Z,100569.19
2018-01-21T23:17:27.444Z,100560.62
2018-01-21T23:19:53.409Z,100551.45
2018-01-21T23:22:19.377Z,100546.52
2018-01-21T23:24:45.321Z,100549.98
2018-01-21T23:27:11.270Z,100546.14
2018-01-21T23:29:37.220Z,100537.94
2018-01-21T23:32:03.179Z,100531.98
2018-01-21T23:34:29.137Z,100532.94
2018-01-21T23:36:55.097Z,100518.23
2018-01-21T23:39:21.094Z,100514.60
2018-01-21T23:41:47.034Z,100503.86
2018-01-21T23:44:12.990Z,100497.94
2018-01-21T23:46:38.933Z,100479.02
2018-01-21T23:49:04.854Z,100472.83
2018-01-21T23:51:30.813Z,100464.02
2018-01-21T23:53:56.757Z,100466.61
2018-01-21T23:56:22.865Z,100462.37
2018-01-21T23:58:48.810Z,100460.00
